DW5978 Whyalla SA AU current weather conditions

sailwx.info

Wind from 217 at 2 knots gusting 5

Air temperature 16.7° C
Dewpoint 13.2° C

Last reported at 2014-Nov-22 15:49 UTC.
Time now 2014-Nov-22 16:36 UTC

Location: S 33°01' E 137°32'.
View on Google Maps.

See reports from other nearby stations

  
Tides and Currents Weather Stations Pressure Air Temp Water Temp Dewpoint Dewpoint Depression Visibility Wind Speed Wind Dir Waves Ship Positions
date/time (UTC)wind fromknots sea level pressurealtimeterstation pressurevisibilityair tempwater tempwave heightnotes
2014-Nov-22 15:49 217 2 gusting 5 16.7
2014-Nov-22 15:34 199 1 gusting 5 17.2
2014-Nov-22 15:19 177 2 gusting 6 18.3
2014-Nov-22 15:04 139 4 gusting 10 18.3
2014-Nov-22 14:49 199 5 gusting 10 18.3
2014-Nov-22 14:34 158 5 gusting 11 18.3
2014-Nov-22 14:18 150 4 gusting 10 18.3
2014-Nov-22 14:03 215 3 gusting 10 18.9
2014-Nov-22 13:48 142 4 gusting 11 18.9
2014-Nov-22 13:33 148 6 gusting 10 18.9
2014-Nov-22 13:18 210 6 gusting 12 18.9
2014-Nov-22 13:03 146 6 gusting 12 18.9
2014-Nov-22 12:48 160 5 gusting 13 19.4
2014-Nov-22 12:33 221 6 gusting 11 19.4
2014-Nov-22 12:18 167 5 gusting 13 19.4
2014-Nov-22 12:03 187 4 gusting 12 19.4
2014-Nov-22 11:48 193 6 gusting 12 20.0
2014-Nov-22 11:33 210 6 gusting 15 20.0
2014-Nov-22 11:18 148 6 gusting 13 20.0
2014-Nov-22 11:03 170 9 gusting 17 20.0
2014-Nov-22 10:48 183 6 gusting 13 20.0
2014-Nov-22 10:33 204 8 gusting 17 20.6
2014-Nov-22 10:18 200 8 gusting 19 20.6
2014-Nov-22 10:03 160 10 gusting 18 20.6
2014-Nov-22 09:48 194 8 gusting 18 21.1
2014-Nov-22 09:33 156 6 gusting 17 21.1
2014-Nov-22 09:18 170 11 gusting 21 21.7
2014-Nov-22 09:03 145 13 gusting 22 21.7
2014-Nov-22 08:48 190 11 gusting 20 22.2
2014-Nov-22 08:33 167 10 gusting 19 23.3
2014-Nov-22 08:19 165 10 gusting 18 24.4
2014-Nov-22 08:03 212 11 gusting 22 25.6
2014-Nov-22 07:48 167 9 gusting 16 26.1
2014-Nov-22 07:33 201 8 gusting 18 26.1
2014-Nov-22 07:18 167 9 gusting 19 26.1
2014-Nov-22 07:03 120 10 gusting 21 26.7
2014-Nov-22 06:48 150 9 gusting 19 27.2
2014-Nov-22 06:33 139 10 gusting 17 27.2
2014-Nov-22 06:18 167 10 gusting 24 27.2
2014-Nov-22 06:02 167 12 gusting 21 28.3
2014-Nov-22 05:47 215 11 gusting 19 28.3
2014-Nov-22 05:32 177 13 gusting 20 28.3
2014-Nov-22 05:17 148 8 gusting 20 28.3
2014-Nov-22 05:02 157 10 gusting 20 27.8
2014-Nov-22 04:47 205 13 gusting 19 27.8
2014-Nov-22 04:32 173 13 gusting 20 31.1
2014-Nov-22 04:17 133 7 gusting 13 31.7
2014-Nov-22 04:02 150 8 gusting 16 31.7
2014-Nov-22 03:47 138 8 gusting 14 32.2
2014-Nov-22 03:32 166 6 gusting 13 31.7
2014-Nov-22 03:17 162 8 gusting 15 31.1
2014-Nov-22 03:02 160 6 gusting 15 31.1
2014-Nov-22 02:47 136 6 gusting 14 31.1
2014-Nov-22 02:32 156 6 gusting 12 30.6
2014-Nov-22 02:17 201 6 gusting 12 30.0
2014-Nov-22 02:02 165 6 gusting 11 29.4
2014-Nov-22 01:47 218 5 gusting 11 28.9
2014-Nov-22 01:32 158 6 gusting 12 28.3
2014-Nov-22 01:17 150 9 gusting 14 27.8
2014-Nov-22 01:02 150 7 gusting 14 27.2
2014-Nov-22 00:47 200 6 gusting 11 26.7
2014-Nov-22 00:32 129 5 gusting 10 26.7
2014-Nov-22 00:17 135 8 gusting 13 26.1
2014-Nov-22 00:02 145 6 gusting 14 26.1
2014-Nov-21 23:47 184 7 gusting 13 26.1
2014-Nov-21 23:32 148 8 gusting 14 27.8
2014-Nov-21 23:17 150 9 gusting 14 29.4
2014-Nov-21 23:02 290 4 gusting 12 33.3
2014-Nov-21 22:47 335 9 gusting 17 32.8
2014-Nov-21 22:32 338 12 gusting 22 31.7
2014-Nov-21 22:17 337 11 gusting 22 31.1
2014-Nov-21 22:02 321 15 gusting 25 30.6
2014-Nov-21 21:47 357 7 gusting 17 30.6
2014-Nov-21 21:32 346 7 gusting 17 30.0
2014-Nov-21 21:17 342 8 gusting 16 28.9
2014-Nov-21 21:02 276 1 gusting 7 27.2
2014-Nov-21 20:47 328 6 gusting 11 28.9
2014-Nov-21 20:31
2014-Nov-21 20:16
2014-Nov-21 20:01
2014-Nov-21 19:46
2014-Nov-21 19:31
2014-Nov-21 19:16
2014-Nov-21 19:01 330 4 gusting 6 23.9
2014-Nov-21 18:46 325 4 gusting 6 21.7
2014-Nov-21 18:31 302 3 gusting 5 21.1
2014-Nov-21 18:16 307 4 gusting 6 21.7
2014-Nov-21 18:01 314 4 gusting 6 21.7
2014-Nov-21 17:46 291 5 gusting 6 20.6
2014-Nov-21 17:31 304 4 gusting 6 20.6
2014-Nov-21 17:16 307 4 gusting 6 20.6
2014-Nov-21 17:01 302 2 gusting 4 20.0
2014-Nov-21 16:46 319 2 gusting 6 19.4
2014-Nov-21 16:31 319 2 gusting 5 18.9
2014-Nov-21 16:16 311 3 gusting 4 18.9
2014-Nov-21 16:01 005 0 gusting 1 18.9
2014-Nov-21 15:46 006 0 gusting 1 19.4
2014-Nov-21 15:31 252 21.1
2014-Nov-21 15:16 276 3 gusting 8 26.1
2014-Nov-21 15:01 056 6 gusting 7 23.9
2014-Nov-21 14:45 027 6 gusting 7 22.2
2014-Nov-21 14:30 019 0 gusting 1 20.0
2014-Nov-21 14:15 026 1 gusting 2 20.0
2014-Nov-21 14:00 288 20.6
2014-Nov-21 13:45 288 21.1
2014-Nov-21 13:30 314 0 gusting 3 22.8
2014-Nov-21 13:15 054 3 gusting 5 23.9
2014-Nov-21 13:00 055 4 gusting 6 23.9
2014-Nov-21 12:45 054 5 gusting 6 23.3
2014-Nov-21 12:31 040 5 gusting 6 23.3
2014-Nov-21 12:15 061 5 gusting 7 23.9
2014-Nov-21 12:00 049 4 gusting 6 23.9
2014-Nov-21 11:45 075 3 gusting 5 23.9
2014-Nov-21 11:30 072 3 gusting 4 23.9
2014-Nov-21 11:15 064 2 gusting 5 23.9
2014-Nov-21 11:00 101 2 gusting 3 22.8
2014-Nov-21 10:45 093 0 gusting 1 23.3
2014-Nov-21 10:30 093 0 gusting 3 23.9
2014-Nov-21 10:15 077 1 gusting 6 24.4
2014-Nov-21 10:00 101 1 gusting 5 24.4
2014-Nov-21 09:45 070 2 gusting 4 25.0
2014-Nov-21 09:30 070 1 gusting 4 26.1
2014-Nov-21 09:15 084 2 gusting 5 26.7
2014-Nov-21 09:00 109 5 gusting 7 27.2
2014-Nov-21 08:45 097 4 gusting 7 27.8
2014-Nov-21 08:30 073 3 gusting 6 27.8
2014-Nov-21 08:15 084 5 gusting 7 28.3
2014-Nov-21 08:00 109 5 gusting 8 28.9
2014-Nov-21 07:45 131 4 gusting 6 28.9
2014-Nov-21 07:30 108 3 gusting 6 28.9
2014-Nov-21 07:15 087 3 gusting 8 28.3
2014-Nov-21 07:00 079 4 gusting 8 28.9
2014-Nov-21 06:45 120 4 gusting 9 28.9
2014-Nov-21 06:30 145 5 gusting 8 28.9
2014-Nov-21 06:15 084 4 gusting 9 28.3
2014-Nov-21 06:01 114 5 gusting 10 28.3
2014-Nov-21 05:45 051 5 gusting 10 28.3
2014-Nov-21 05:30 079 5 gusting 9 28.3
2014-Nov-21 05:14 112 5 gusting 7 27.8
2014-Nov-21 04:59 115 5 gusting 7 27.8
2014-Nov-21 04:44 112 6 gusting 9 27.8
2014-Nov-21 04:29 101 6 gusting 10 27.2
2014-Nov-21 04:14 120 6 gusting 10 27.2
2014-Nov-21 03:59 106 6 gusting 10 26.7
2014-Nov-21 03:44 072 4 gusting 10 26.7
2014-Nov-21 03:29 122 5 gusting 9 25.6
2014-Nov-21 03:14 091 5 gusting 9 25.0
2014-Nov-21 02:59 105 3 gusting 9 24.4
2014-Nov-21 02:44 134 5 gusting 9 23.9
2014-Nov-21 02:29 106 5 gusting 8 23.3
2014-Nov-21 02:14 086 4 gusting 9 23.3
2014-Nov-21 01:59 098 6 gusting 11 22.8
2014-Nov-21 01:44 105 3 gusting 10 22.8
2014-Nov-21 01:29 075 3 gusting 10 22.8
2014-Nov-21 01:14 123 5 gusting 7 23.9
2014-Nov-21 00:59 156 1 gusting 4 23.9
2014-Nov-21 00:44 346 3 gusting 6 23.9
2014-Nov-21 00:29 091 0 gusting 3 23.9
2014-Nov-21 00:14 278 0 gusting 6 22.2
2014-Nov-20 23:59 109 0 gusting 3 21.7
2014-Nov-20 23:44 027 0 gusting 5 21.1
2014-Nov-20 23:29 141 0 gusting 4 21.1
2014-Nov-20 23:14 074 1 gusting 4 21.1
2014-Nov-20 22:59 100 0 gusting 5 20.0
2014-Nov-20 22:44 030 0 gusting 5 20.6
2014-Nov-20 22:28 041 0 gusting 5 20.0
2014-Nov-20 22:14 041 0 gusting 3 19.4
2014-Nov-20 21:58 044 0 gusting 3 19.4
2014-Nov-20 21:43 058 0 gusting 2 18.9
2014-Nov-20 21:28 180 18.3
2014-Nov-20 21:13 170 17.2
2014-Nov-20 20:58 238 1 gusting 4 16.1
2014-Nov-20 20:43
2014-Nov-20 20:28
2014-Nov-20 20:13
2014-Nov-20 19:58
2014-Nov-20 19:43
2014-Nov-20 19:28
2014-Nov-20 19:13 252 0 gusting 3 15.6
2014-Nov-20 18:58 257 0 gusting 2 16.1
2014-Nov-20 18:43 259 0 gusting 1 16.1
2014-Nov-20 18:28 249 16.7
2014-Nov-20 18:13 231 16.7
2014-Nov-20 17:58 229 0 gusting 0 16.7
2014-Nov-20 17:43 229 17.2
2014-Nov-20 17:28 256 17.2
2014-Nov-20 17:13 257 1 gusting 3 17.2
2014-Nov-20 16:58 193 2 gusting 6 17.2
2014-Nov-20 16:42 201 3 gusting 5 17.2
2014-Nov-20 16:27 228 1 gusting 4 17.8
2014-Nov-20 16:12 174 3 gusting 5 17.8